createdAt,value
2018-06-24T00:11:06.854Z,61.70
2018-06-24T00:15:11.222Z,65.20
2018-06-24T00:19:15.574Z,65.60
2018-06-24T00:23:20.052Z,66.70
2018-06-24T00:27:24.694Z,66.10
2018-06-24T00:31:29.224Z,67.70
2018-06-24T00:35:33.585Z,65.20
2018-06-24T00:39:37.849Z,69.00
2018-06-24T00:47:46.054Z,68.60
2018-06-24T00:51:50.585Z,70.20
2018-06-24T00:55:55.143Z,68.50
2018-06-24T01:00:15.133Z,69.00
2018-06-24T01:04:19.368Z,69.40
2018-06-24T01:08:23.667Z,70.20
2018-06-24T01:12:29.152Z,67.60
2018-06-24T01:16:33.459Z,68.40
2018-06-24T01:20:37.880Z,71.10
2018-06-24T01:24:42.370Z,70.00
2018-06-24T01:28:46.591Z,70.10
2018-06-24T01:32:51.128Z,68.60
2018-06-24T01:36:55.404Z,67.60
2018-06-24T01:40:59.655Z,65.80
2018-06-24T01:45:04.137Z,61.80
2018-06-24T01:49:08.479Z,67.20
2018-06-24T02:05:24.424Z,69.60
2018-06-24T02:09:28.965Z,69.70
2018-06-24T02:17:37.230Z,67.30
2018-06-24T02:21:41.654Z,69.60
2018-06-24T02:25:46.104Z,69.60
2018-06-24T02:29:50.569Z,69.10
2018-06-24T02:33:54.978Z,69.90
2018-06-24T02:37:59.277Z,71.30
2018-06-24T02:42:03.590Z,72.00
2018-06-24T02:46:07.948Z,72.70
2018-06-24T02:50:12.515Z,72.40
2018-06-24T02:54:16.773Z,72.40
2018-06-24T03:02:24.793Z,75.00
2018-06-24T03:06:29.158Z,75.00
2018-06-24T03:18:41.095Z,76.20
2018-06-24T03:26:49.220Z,77.10
2018-06-24T03:30:53.511Z,75.80
2018-06-24T03:34:57.789Z,75.10
2018-06-24T03:43:05.872Z,74.90
2018-06-24T03:47:10.147Z,75.80
2018-06-24T03:51:14.705Z,77.80
2018-06-24T03:55:18.941Z,77.20
2018-06-24T03:59:23.481Z,78.10
2018-06-24T04:07:31.626Z,77.00
2018-06-24T04:15:39.772Z,75.60
2018-06-24T04:19:43.991Z,76.60
2018-06-24T04:23:48.293Z,76.30
2018-06-24T04:31:56.600Z,74.50
2018-06-24T04:36:00.800Z,75.30
2018-06-24T04:40:05.231Z,75.30
2018-06-24T04:44:09.924Z,75.30
2018-06-24T04:48:14.214Z,77.60
2018-06-24T04:52:18.491Z,75.40
2018-06-24T04:56:22.953Z,76.20
2018-06-24T05:08:35.095Z,77.50
2018-06-24T05:12:39.348Z,75.70
2018-06-24T05:16:43.814Z,75.90
2018-06-24T05:24:51.950Z,77.80
2018-06-24T05:28:56.776Z,77.20
2018-06-24T05:33:01.129Z,79.20
2018-06-24T05:37:06.648Z,82.00
2018-06-24T05:41:10.940Z,81.20
2018-06-24T05:45:15.247Z,80.80
2018-06-24T05:49:19.568Z,79.60
2018-06-24T05:53:23.939Z,80.10
2018-06-24T05:57:28.197Z,75.90
2018-06-24T06:01:33.613Z,72.60
2018-06-24T06:09:41.661Z,66.50
2018-06-24T06:21:53.847Z,69.90
2018-06-24T06:25:58.116Z,69.90
2018-06-24T06:30:02.628Z,65.60
2018-06-24T06:34:07.213Z,65.10
2018-06-24T06:38:11.708Z,68.20
2018-06-24T06:42:16.081Z,64.50
2018-06-24T06:46:20.444Z,64.40
2018-06-24T06:58:32.495Z,61.50
2018-06-24T07:02:36.900Z,62.50
2018-06-24T07:06:41.336Z,62.40
2018-06-24T07:10:45.844Z,57.50
2018-06-24T07:14:50.314Z,58.60
2018-06-24T07:18:54.664Z,58.40
2018-06-24T07:22:59.086Z,65.90
2018-06-24T07:27:03.385Z,59.00
2018-06-24T07:31:15.017Z,57.60
2018-06-24T07:35:28.194Z,57.20
2018-06-24T07:39:39.848Z,55.00
2018-06-24T07:48:01.462Z,58.60
2018-06-24T07:52:13.875Z,57.80
2018-06-24T07:56:26.464Z,55.80
2018-06-24T08:04:49.577Z,55.40
2018-06-24T08:13:15.525Z,51.70
2018-06-24T08:17:19.888Z,52.50
2018-06-24T08:21:24.225Z,54.50
2018-06-24T08:25:29.570Z,52.10
2018-06-24T08:29:33.922Z,50.80
2018-06-24T08:33:38.229Z,48.50
2018-06-24T08:37:42.636Z,48.10
2018-06-24T08:41:47.084Z,49.90
2018-06-24T08:45:51.503Z,50.00
2018-06-24T08:49:55.777Z,50.80
2018-06-24T08:54:00.155Z,51.10
2018-06-24T08:58:04.391Z,49.80
2018-06-24T09:02:08.954Z,49.90
2018-06-24T09:06:13.309Z,47.00
2018-06-24T09:10:17.561Z,46.00
2018-06-24T09:14:22.068Z,47.60
2018-06-24T09:18:26.348Z,45.30
2018-06-24T09:26:34.364Z,49.20
2018-06-24T09:30:41.084Z,45.80
2018-06-24T09:34:45.552Z,45.30
2018-06-24T09:38:49.808Z,44.40
2018-06-24T09:42:54.101Z,41.60
2018-06-24T09:46:58.745Z,43.60
2018-06-24T09:51:02.919Z,38.50
2018-06-24T09:55:07.357Z,38.20
2018-06-24T09:59:11.568Z,36.10
2018-06-24T10:03:16.001Z,37.20
2018-06-24T10:07:20.235Z,40.00
2018-06-24T10:11:24.868Z,39.20
2018-06-24T10:15:30.243Z,45.90
2018-06-24T10:19:34.544Z,44.40
2018-06-24T10:23:39.900Z,44.20
2018-06-24T10:27:44.121Z,43.90
2018-06-24T10:31:48.594Z,42.50
2018-06-24T10:40:07.574Z,41.70
2018-06-24T10:44:18.273Z,39.20
2018-06-24T10:56:52.308Z,33.20
2018-06-24T11:01:06.284Z,32.40
2018-06-24T11:05:15.144Z,29.10
2018-06-24T11:09:27.442Z,28.20
2018-06-24T11:13:37.120Z,27.70
2018-06-24T11:17:48.962Z,28.40
2018-06-24T11:21:53.490Z,28.40
2018-06-24T11:26:03.250Z,27.40
2018-06-24T11:30:07.686Z,28.60
2018-06-24T11:34:11.923Z,27.40
2018-06-24T11:38:16.173Z,27.20
2018-06-24T11:42:20.389Z,26.80
2018-06-24T11:46:24.693Z,26.90
2018-06-24T11:50:28.976Z,26.00
2018-06-24T11:54:33.244Z,26.60
2018-06-24T11:58:37.636Z,24.50
2018-06-24T12:02:41.868Z,27.40
2018-06-24T12:06:46.204Z,29.70
2018-06-24T12:10:50.616Z,31.10
2018-06-24T12:14:54.828Z,28.30
2018-06-24T12:18:59.192Z,26.20
2018-06-24T12:23:09.321Z,27.00
2018-06-24T12:27:13.899Z,23.40
2018-06-24T12:31:18.452Z,25.10
2018-06-24T12:35:22.932Z,25.00
2018-06-24T12:39:27.867Z,25.90
2018-06-24T12:43:32.215Z,25.40
2018-06-24T12:47:36.901Z,24.70
2018-06-24T12:51:41.226Z,25.80
2018-06-24T12:55:45.964Z,30.00
2018-06-24T12:59:50.504Z,30.00
2018-06-24T13:03:55.327Z,29.80
2018-06-24T13:07:59.837Z,30.80
2018-06-24T13:12:04.417Z,26.50
2018-06-24T13:16:08.767Z,23.70
2018-06-24T13:20:13.228Z,23.90
2018-06-24T13:24:17.582Z,21.50
2018-06-24T13:28:21.928Z,23.30
2018-06-24T13:32:26.144Z,24.10
2018-06-24T13:36:30.428Z,28.50
2018-06-24T13:40:34.658Z,30.40
2018-06-24T13:48:43.363Z,24.40
2018-06-24T13:52:47.652Z,24.20
2018-06-24T13:56:52.450Z,24.00
2018-06-24T14:00:56.673Z,24.60
2018-06-24T14:05:00.964Z,25.80
2018-06-24T14:13:11.258Z,26.90
2018-06-24T14:17:16.754Z,26.90
2018-06-24T14:21:20.957Z,29.80
2018-06-24T14:25:25.208Z,32.10
2018-06-24T14:29:29.681Z,29.20
2018-06-24T14:33:34.129Z,28.10
2018-06-24T14:37:38.391Z,24.60
2018-06-24T14:41:42.790Z,24.70
2018-06-24T14:45:47.344Z,27.60
2018-06-24T14:49:51.591Z,28.50
2018-06-24T14:57:59.675Z,23.90
2018-06-24T15:02:04.118Z,26.90
2018-06-24T15:06:08.433Z,25.90
2018-06-24T15:10:12.676Z,23.30
2018-06-24T15:14:17.049Z,24.60
2018-06-24T15:18:21.243Z,26.80
2018-06-24T15:22:25.636Z,31.00
2018-06-24T15:30:33.675Z,31.30
2018-06-24T15:34:37.956Z,32.90
2018-06-24T15:38:42.348Z,34.10
2018-06-24T15:46:50.349Z,40.60
2018-06-24T15:50:54.596Z,41.50
2018-06-24T15:54:58.824Z,40.40
2018-06-24T15:59:03.645Z,41.00
2018-06-24T16:03:07.997Z,41.10
2018-06-24T16:07:12.248Z,42.50
2018-06-24T16:11:16.609Z,40.30
2018-06-24T16:19:24.517Z,38.80
2018-06-24T16:23:28.887Z,40.00
2018-06-24T16:31:36.864Z,42.50
2018-06-24T16:35:41.168Z,41.70
2018-06-24T16:48:01.306Z,43.10
2018-06-24T16:52:05.752Z,44.40
2018-06-24T16:56:10.106Z,45.00
2018-06-24T17:00:14.690Z,47.50
2018-06-24T17:16:31.419Z,51.90
2018-06-24T17:20:36.113Z,53.20
2018-06-24T17:24:40.563Z,50.20
2018-06-24T17:28:44.825Z,50.00
2018-06-24T17:32:49.161Z,48.90
2018-06-24T17:36:53.507Z,49.90
2018-06-24T17:41:02.875Z,49.40
2018-06-24T17:49:23.941Z,54.20
2018-06-24T17:53:33.427Z,55.80
2018-06-24T18:01:58.142Z,58.10
2018-06-24T18:06:03.007Z,56.00
2018-06-24T18:10:07.434Z,59.40
2018-06-24T18:14:11.748Z,62.10
2018-06-24T18:18:16.140Z,60.50
2018-06-24T18:22:20.746Z,60.00
2018-06-24T18:26:25.143Z,61.00
2018-06-24T18:30:29.527Z,62.10
2018-06-24T18:34:33.782Z,61.30
2018-06-24T18:38:38.214Z,63.60
2018-06-24T18:42:42.645Z,61.90
2018-06-24T18:46:47.774Z,62.30
2018-06-24T18:50:52.203Z,64.70
2018-06-24T18:54:56.749Z,65.70
2018-06-24T18:59:01.155Z,67.20
2018-06-24T19:03:06.163Z,67.00
2018-06-24T19:07:10.508Z,68.30
2018-06-24T19:11:15.054Z,69.40
2018-06-24T19:15:19.766Z,69.10
2018-06-24T19:19:24.236Z,69.40
2018-06-24T19:23:28.646Z,69.50
2018-06-24T19:27:34.070Z,70.60
2018-06-24T19:31:38.813Z,71.80
2018-06-24T19:35:45.136Z,73.00
2018-06-24T19:39:49.812Z,74.20
2018-06-24T19:43:54.406Z,74.80
2018-06-24T19:47:59.809Z,74.50
2018-06-24T19:52:04.285Z,76.40
2018-06-24T19:56:08.962Z,76.60
2018-06-24T20:00:13.698Z,76.50
2018-06-24T20:04:18.175Z,76.80
2018-06-24T20:08:22.683Z,76.40
2018-06-24T20:16:52.580Z,76.50
2018-06-24T20:20:56.872Z,76.60
2018-06-24T20:25:01.338Z,76.40
2018-06-24T20:29:05.762Z,76.40
2018-06-24T20:33:10.101Z,78.10
2018-06-24T20:37:14.320Z,78.00
2018-06-24T20:41:18.580Z,76.50
2018-06-24T20:45:23.160Z,76.30
2018-06-24T20:49:27.515Z,76.30
2018-06-24T20:53:31.830Z,76.50
2018-06-24T20:57:36.117Z,76.20
2018-06-24T21:01:40.325Z,76.40
2018-06-24T21:05:45.649Z,75.00
2018-06-24T21:09:49.891Z,76.50
2018-06-24T21:13:54.121Z,76.20
2018-06-24T21:17:58.398Z,77.10
2018-06-24T21:22:02.705Z,78.30
2018-06-24T21:26:06.971Z,78.00
2018-06-24T21:30:11.417Z,78.40
2018-06-24T21:34:15.603Z,77.70
2018-06-24T21:38:19.995Z,78.30
2018-06-24T21:42:24.261Z,78.90
2018-06-24T21:46:28.474Z,78.60
2018-06-24T21:50:32.736Z,78.90
2018-06-24T21:54:37.135Z,79.00
2018-06-24T21:58:41.622Z,78.70
2018-06-24T22:02:45.879Z,78.80
2018-06-24T22:06:50.137Z,78.80
2018-06-24T22:10:54.529Z,78.50
2018-06-24T22:14:58.773Z,79.20
2018-06-24T22:19:02.949Z,94.70
2018-06-24T22:23:07.288Z,95.20
2018-06-24T22:27:11.599Z,97.20
2018-06-24T22:31:15.899Z,97.50
2018-06-24T22:35:20.136Z,98.70
2018-06-24T22:39:24.337Z,99.20
2018-06-24T22:43:28.756Z,99.10
2018-06-24T22:47:33.187Z,99.10
2018-06-24T22:51:37.600Z,99.40
2018-06-24T22:55:41.940Z,99.30
2018-06-24T22:59:57.062Z,98.80
2018-06-24T23:04:01.303Z,99.30
2018-06-24T23:08:05.801Z,99.70
2018-06-24T23:12:10.055Z,99.70
2018-06-24T23:16:14.386Z,99.80
2018-06-24T23:20:18.615Z,99.90
2018-06-24T23:24:22.836Z,99.90
2018-06-24T23:28:27.303Z,99.90
2018-06-24T23:32:31.533Z,99.90
2018-06-24T23:36:35.808Z,99.90
2018-06-24T23:40:40.169Z,99.90
2018-06-24T23:44:44.412Z,99.90
2018-06-24T23:48:48.621Z,99.90
2018-06-24T23:52:53.010Z,99.90
2018-06-24T23:57:00.140Z,99.90
